createdAt,value
2022-08-28T00:00:46.674Z,0
2022-08-28T00:01:55.854Z,0
2022-08-28T00:03:05.028Z,0
2022-08-28T00:04:13.220Z,0
2022-08-28T00:05:21.411Z,0
2022-08-28T00:06:30.576Z,0
2022-08-28T00:07:39.757Z,0
2022-08-28T00:08:48.918Z,0
2022-08-28T00:09:58.096Z,0
2022-08-28T00:11:07.269Z,0
2022-08-28T00:12:16.440Z,0
2022-08-28T00:13:25.615Z,0
2022-08-28T00:14:34.791Z,0
2022-08-28T00:15:43.952Z,0
2022-08-28T00:16:53.124Z,0
2022-08-28T00:18:02.307Z,0
2022-08-28T00:19:11.490Z,0
2022-08-28T00:20:19.673Z,0
2022-08-28T00:21:28.843Z,0
2022-08-28T00:22:38.040Z,0
2022-08-28T00:23:47.188Z,0
2022-08-28T00:24:55.370Z,0
2022-08-28T00:26:03.562Z,0
2022-08-28T00:27:12.748Z,0
2022-08-28T00:28:21.905Z,0
2022-08-28T00:29:31.080Z,0
2022-08-28T00:30:40.265Z,0
2022-08-28T00:31:49.445Z,0
2022-08-28T00:32:58.596Z,0
2022-08-28T00:34:07.779Z,0
2022-08-28T00:35:16.962Z,0
2022-08-28T00:36:26.118Z,0
2022-08-28T00:37:35.293Z,0
2022-08-28T00:38:44.465Z,0
2022-08-28T00:39:53.634Z,0
2022-08-28T00:41:01.826Z,0
2022-08-28T00:42:11.010Z,0
2022-08-28T00:43:20.168Z,0
2022-08-28T00:44:29.339Z,0
2022-08-28T00:45:38.527Z,0
2022-08-28T00:46:47.693Z,0
2022-08-28T00:47:56.865Z,0
2022-08-28T00:49:05.058Z,0
2022-08-28T00:50:13.251Z,0
2022-08-28T00:51:22.418Z,0
2022-08-28T00:52:31.595Z,0
2022-08-28T00:53:40.762Z,0
2022-08-28T00:54:49.947Z,0
2022-08-28T00:58:17.470Z,0
2022-08-28T00:59:25.647Z,0
2022-08-28T01:00:33.844Z,0
2022-08-28T01:01:43.004Z,0
2022-08-28T01:04:01.351Z,0
2022-08-28T01:05:10.522Z,0
2022-08-28T01:06:19.699Z,0
2022-08-28T01:07:28.880Z,0
2022-08-28T01:08:38.036Z,0
2022-08-28T01:09:47.220Z,0
2022-08-28T01:10:56.403Z,0
2022-08-28T01:12:05.571Z,0
2022-08-28T01:13:14.734Z,0
2022-08-28T01:14:23.908Z,0
2022-08-28T01:15:33.069Z,0
2022-08-28T01:16:41.271Z,0
2022-08-28T01:17:50.445Z,0
2022-08-28T01:18:59.608Z,0
2022-08-28T01:20:08.788Z,0
2022-08-28T01:21:17.959Z,0
2022-08-28T01:22:27.122Z,0
2022-08-28T01:23:36.295Z,0
2022-08-28T01:24:45.474Z,0
2022-08-28T01:25:54.651Z,0
2022-08-28T01:27:03.825Z,0
2022-08-28T01:28:12.997Z,0
2022-08-28T01:29:22.163Z,0
2022-08-28T01:30:31.335Z,0
2022-08-28T01:32:48.692Z,0
2022-08-28T01:33:57.871Z,0
2022-08-28T01:35:07.043Z,0
2022-08-28T01:36:16.215Z,0
2022-08-28T01:37:25.381Z,0
2022-08-28T01:38:34.553Z,0
2022-08-28T01:39:43.718Z,0
2022-08-28T01:40:52.906Z,0
2022-08-28T01:42:02.076Z,0
2022-08-28T01:43:11.262Z,0
2022-08-28T01:44:20.429Z,0
2022-08-28T01:45:29.604Z,0
2022-08-28T01:46:37.769Z,0
2022-08-28T01:47:46.946Z,0
2022-08-28T01:48:56.139Z,0
2022-08-28T01:50:05.297Z,0
2022-08-28T01:51:14.468Z,0
2022-08-28T01:52:23.640Z,0
2022-08-28T01:53:32.819Z,0
2022-08-28T01:54:41.988Z,0
2022-08-28T01:55:51.156Z,0
2022-08-28T01:57:00.341Z,0
2022-08-28T01:58:09.503Z,0
2022-08-28T01:59:18.684Z,0
2022-08-28T02:00:27.851Z,0
2022-08-28T02:01:36.049Z,0
2022-08-28T02:02:45.211Z,0
2022-08-28T02:03:54.395Z,0
2022-08-28T02:05:03.562Z,0
2022-08-28T02:06:12.723Z,0
2022-08-28T02:07:21.903Z,0
2022-08-28T02:08:31.077Z,0
2022-08-28T02:09:40.247Z,0
2022-08-28T02:10:49.419Z,0
2022-08-28T02:11:58.600Z,0
2022-08-28T02:13:07.780Z,0
2022-08-28T02:14:16.939Z,0
2022-08-28T02:15:26.137Z,0
2022-08-28T02:16:34.305Z,0
2022-08-28T02:17:43.481Z,0
2022-08-28T02:18:52.649Z,0
2022-08-28T02:20:01.818Z,0
2022-08-28T02:21:10.984Z,0
2022-08-28T02:22:19.189Z,0
2022-08-28T02:23:28.364Z,0
2022-08-28T02:24:36.542Z,0
2022-08-28T02:25:45.712Z,0
2022-08-28T02:26:54.891Z,0
2022-08-28T02:28:04.057Z,0
2022-08-28T02:29:13.229Z,0
2022-08-28T02:30:22.416Z,0
2022-08-28T02:31:31.583Z,0
2022-08-28T02:32:40.754Z,0
2022-08-28T02:33:49.927Z,0
2022-08-28T02:34:59.098Z,0
2022-08-28T02:36:08.278Z,0
2022-08-28T02:37:17.452Z,0
2022-08-28T02:38:26.616Z,0
2022-08-28T02:39:34.817Z,0
2022-08-28T02:41:52.172Z,0
2022-08-28T02:43:00.360Z,0
2022-08-28T02:44:09.535Z,0
2022-08-28T02:45:18.714Z,0
2022-08-28T02:46:27.886Z,0
2022-08-28T02:47:37.054Z,0
2022-08-28T02:48:46.225Z,0
2022-08-28T02:49:55.395Z,0
2022-08-28T02:51:04.590Z,0
2022-08-28T02:52:13.747Z,0
2022-08-28T02:53:22.920Z,0
2022-08-28T02:54:32.099Z,0
2022-08-28T02:55:41.279Z,0
2022-08-28T02:56:50.435Z,0
2022-08-28T02:57:58.625Z,0
2022-08-28T02:59:07.799Z,0
2022-08-28T03:00:16.987Z,0
2022-08-28T03:01:26.153Z,0
2022-08-28T03:02:35.306Z,0
2022-08-28T03:03:44.493Z,0
2022-08-28T03:04:53.649Z,0
2022-08-28T03:06:02.835Z,0
2022-08-28T03:07:12.002Z,0
2022-08-28T03:08:21.164Z,0
2022-08-28T03:09:30.349Z,0
2022-08-28T03:10:39.513Z,0
2022-08-28T03:11:48.695Z,0
2022-08-28T03:12:56.871Z,0
2022-08-28T03:14:06.053Z,0
2022-08-28T03:15:15.217Z,0
2022-08-28T03:16:24.398Z,0
2022-08-28T03:17:33.581Z,0
2022-08-28T03:18:42.733Z,0
2022-08-28T03:19:51.917Z,0
2022-08-28T03:21:01.091Z,0
2022-08-28T03:22:10.265Z,0
2022-08-28T03:23:19.426Z,0
2022-08-28T03:24:28.608Z,0
2022-08-28T03:25:37.774Z,0
2022-08-28T03:26:46.939Z,0
2022-08-28T03:27:55.140Z,0
2022-08-28T03:29:04.308Z,0
2022-08-28T03:30:13.485Z,0
2022-08-28T03:31:22.656Z,0
2022-08-28T03:32:31.822Z,0
2022-08-28T03:33:41.006Z,0
2022-08-28T03:34:49.182Z,0
2022-08-28T03:35:57.381Z,0
2022-08-28T03:37:06.541Z,0
2022-08-28T03:39:24.888Z,0
2022-08-28T03:40:34.068Z,0
2022-08-28T03:41:43.248Z,0
2022-08-28T03:42:52.416Z,0
2022-08-28T03:44:01.586Z,0
2022-08-28T03:45:10.761Z,0
2022-08-28T03:46:19.929Z,0
2022-08-28T03:47:29.100Z,0
2022-08-28T03:48:37.292Z,0
2022-08-28T03:49:45.500Z,0
2022-08-28T03:50:54.651Z,0
2022-08-28T03:52:03.837Z,0
2022-08-28T03:53:13.019Z,0
2022-08-28T03:54:22.168Z,0
2022-08-28T03:55:31.340Z,0
2022-08-28T03:56:40.523Z,0
2022-08-28T03:57:49.702Z,0
2022-08-28T03:58:58.863Z,0
2022-08-28T04:00:08.037Z,0
2022-08-28T04:01:17.216Z,3
2022-08-28T04:02:26.385Z,3
2022-08-28T04:03:35.557Z,3
2022-08-28T04:04:43.746Z,3
2022-08-28T04:05:52.922Z,4
2022-08-28T04:07:02.095Z,0
2022-08-28T04:08:11.265Z,4
2022-08-28T04:09:20.439Z,4
2022-08-28T04:10:29.611Z,9
2022-08-28T04:11:38.775Z,1
2022-08-28T04:12:47.952Z,5
2022-08-28T04:13:57.121Z,5
2022-08-28T04:15:06.292Z,10
2022-08-28T04:16:15.468Z,14
2022-08-28T04:17:24.649Z,19
2022-08-28T04:18:33.812Z,32
2022-08-28T04:19:42.000Z,28
2022-08-28T04:20:51.177Z,30
2022-08-28T04:22:00.360Z,21
2022-08-28T04:23:09.532Z,39
2022-08-28T04:24:18.693Z,48
2022-08-28T04:25:27.862Z,62
2022-08-28T04:26:37.042Z,68
2022-08-28T04:28:55.398Z,109
2022-08-28T04:30:04.572Z,105
2022-08-28T04:31:13.731Z,133
2022-08-28T04:32:22.894Z,143
2022-08-28T04:33:32.083Z,170
2022-08-28T04:34:40.263Z,197
2022-08-28T04:35:49.438Z,215
2022-08-28T04:36:58.616Z,238
2022-08-28T04:38:07.786Z,270
2022-08-28T04:39:16.956Z,280
2022-08-28T04:40:26.126Z,299
2022-08-28T04:41:35.309Z,327
2022-08-28T04:42:44.479Z,359
2022-08-28T04:43:53.650Z,378
2022-08-28T04:45:02.832Z,402
2022-08-28T04:46:11.998Z,447
2022-08-28T04:47:21.160Z,505
2022-08-28T04:48:30.326Z,536
2022-08-28T04:49:38.529Z,573
2022-08-28T04:50:47.708Z,613
2022-08-28T04:51:56.886Z,654
2022-08-28T04:53:06.049Z,702
2022-08-28T04:54:15.226Z,730
2022-08-28T04:55:24.405Z,756
2022-08-28T04:56:33.560Z,780
2022-08-28T04:57:42.739Z,825
2022-08-28T04:58:51.907Z,865
2022-08-28T05:00:01.082Z,851
2022-08-28T05:01:10.260Z,871
2022-08-28T05:02:19.427Z,935
2022-08-28T05:03:28.608Z,1015
2022-08-28T05:04:36.799Z,1090
2022-08-28T05:05:45.970Z,1153
2022-08-28T05:06:55.151Z,1226
2022-08-28T05:08:04.312Z,1277
2022-08-28T05:09:13.480Z,1318
2022-08-28T05:10:22.668Z,1389
2022-08-28T05:11:31.834Z,1449
2022-08-28T05:12:41.004Z,1476
2022-08-28T05:13:50.184Z,1479
2022-08-28T05:14:59.353Z,1412
2022-08-28T05:16:08.522Z,1324
2022-08-28T05:17:17.690Z,1602
2022-08-28T05:18:26.868Z,1441
2022-08-28T05:19:35.066Z,1715
2022-08-28T05:20:44.219Z,1391
2022-08-28T05:21:53.412Z,1566
2022-08-28T05:23:02.566Z,1559
2022-08-28T05:24:11.766Z,1584
2022-08-28T05:25:20.925Z,1610
2022-08-28T05:26:30.089Z,1634
2022-08-28T05:27:39.271Z,1663
2022-08-28T05:28:48.441Z,1676
2022-08-28T05:29:57.615Z,1721
2022-08-28T05:31:06.785Z,1750
2022-08-28T05:32:15.964Z,1750
2022-08-28T05:33:25.142Z,1775
2022-08-28T05:34:33.320Z,1811
2022-08-28T05:35:42.488Z,1844
2022-08-28T05:36:51.660Z,1886
2022-08-28T05:38:00.822Z,1944
2022-08-28T05:39:09.994Z,2029
2022-08-28T05:40:19.172Z,2052
2022-08-28T05:41:28.360Z,2105
2022-08-28T05:42:37.530Z,2084
2022-08-28T05:43:46.689Z,2118
2022-08-28T05:44:55.871Z,2198
2022-08-28T05:46:05.046Z,2159
2022-08-28T05:47:14.207Z,2240
2022-08-28T05:48:23.383Z,2268
2022-08-28T05:49:31.576Z,2401
2022-08-28T05:50:40.775Z,2403
2022-08-28T05:51:49.925Z,2414
2022-08-28T05:52:59.090Z,2427
2022-08-28T05:54:08.256Z,2505
2022-08-28T05:55:17.425Z,2512
2022-08-28T05:56:26.610Z,2574
2022-08-28T05:57:35.781Z,2650
2022-08-28T05:58:44.954Z,2660
2022-08-28T05:59:54.134Z,2621
2022-08-28T06:01:03.299Z,2706
2022-08-28T06:02:12.477Z,2672
2022-08-28T06:03:21.641Z,2741
2022-08-28T06:04:29.846Z,2864
2022-08-28T06:05:39.015Z,2939
2022-08-28T06:06:48.184Z,2881
2022-08-28T06:07:57.354Z,2795
2022-08-28T06:09:06.515Z,2924
2022-08-28T06:10:15.694Z,3224
2022-08-28T06:11:24.868Z,4299
2022-08-28T06:12:34.043Z,4644
2022-08-28T06:13:43.230Z,2712
2022-08-28T06:14:52.386Z,1489
2022-08-28T06:16:01.556Z,4538
2022-08-28T06:17:10.734Z,2287
2022-08-28T06:18:19.902Z,1796
2022-08-28T06:19:28.096Z,3769
2022-08-28T06:20:37.271Z,4191
2022-08-28T06:21:46.433Z,3682
2022-08-28T06:22:55.624Z,3877
2022-08-28T06:24:04.812Z,2235
2022-08-28T06:25:13.954Z,2365
2022-08-28T06:26:23.144Z,4012
2022-08-28T06:27:32.311Z,3774
2022-08-28T06:28:41.476Z,3939
2022-08-28T06:29:50.656Z,2900
2022-08-28T06:30:59.815Z,2669
2022-08-28T06:32:08.992Z,3824
2022-08-28T06:33:18.170Z,3131
2022-08-28T06:34:26.369Z,3327
2022-08-28T06:35:35.529Z,3624
2022-08-28T06:36:44.696Z,4247
2022-08-28T06:37:53.875Z,3739
2022-08-28T06:39:03.053Z,5874
2022-08-28T06:40:12.219Z,1888
2022-08-28T06:41:21.386Z,4339
2022-08-28T06:42:30.563Z,5468
2022-08-28T06:43:39.726Z,2432
2022-08-28T06:44:48.903Z,4434
2022-08-28T06:45:58.093Z,4464
2022-08-28T06:47:07.265Z,5090
2022-08-28T06:48:16.418Z,5150
2022-08-28T06:49:25.595Z,4784
2022-08-28T06:51:43.939Z,4217
2022-08-28T06:52:52.133Z,4180
2022-08-28T06:54:01.306Z,4183
2022-08-28T06:55:10.474Z,4113
2022-08-28T06:56:19.649Z,4191
2022-08-28T06:57:28.827Z,4266
2022-08-28T06:58:37.999Z,4202
2022-08-28T06:59:47.167Z,4220
2022-08-28T07:00:56.332Z,4309
2022-08-28T07:02:05.509Z,4227
2022-08-28T07:03:14.688Z,4306
2022-08-28T07:04:23.854Z,4324
2022-08-28T07:05:33.023Z,4345
2022-08-28T07:06:42.192Z,4376
2022-08-28T07:07:51.377Z,4426
2022-08-28T07:08:59.557Z,4395
2022-08-28T07:10:08.729Z,4411
2022-08-28T07:11:17.913Z,4389
2022-08-28T07:12:27.074Z,4418
2022-08-28T07:13:36.244Z,4456
2022-08-28T07:14:45.410Z,4391
2022-08-28T07:15:54.601Z,4453
2022-08-28T07:17:03.771Z,4454
2022-08-28T07:18:12.928Z,4489
2022-08-28T07:19:22.098Z,4503
2022-08-28T07:20:31.293Z,4511
2022-08-28T07:21:40.458Z,4592
2022-08-28T07:22:49.625Z,4591
2022-08-28T07:23:57.803Z,4615
2022-08-28T07:25:06.998Z,4634
2022-08-28T07:26:16.165Z,4630
2022-08-28T07:27:25.336Z,4691
2022-08-28T07:28:34.497Z,4696
2022-08-28T07:29:43.678Z,4670
2022-08-28T07:30:52.849Z,4702
2022-08-28T07:32:02.021Z,4734
2022-08-28T07:33:11.183Z,4765
2022-08-28T07:34:20.370Z,4777
2022-08-28T07:35:29.537Z,4784
2022-08-28T07:36:38.732Z,4850
2022-08-28T07:37:47.883Z,4838
2022-08-28T07:38:56.072Z,4882
2022-08-28T07:40:05.238Z,4867
2022-08-28T07:41:14.427Z,4904
2022-08-28T07:42:23.590Z,4943
2022-08-28T07:43:32.758Z,4920
2022-08-28T07:44:41.934Z,4937
2022-08-28T07:45:51.093Z,4969
2022-08-28T07:47:00.275Z,4951
2022-08-28T07:48:09.460Z,5042
2022-08-28T07:49:18.628Z,5004
2022-08-28T07:50:27.792Z,5000
2022-08-28T07:51:36.974Z,5101
2022-08-28T07:52:46.137Z,5126
2022-08-28T07:53:54.319Z,5063
2022-08-28T07:55:03.497Z,5120
2022-08-28T07:56:12.668Z,5065
2022-08-28T07:57:21.852Z,8717
2022-08-28T07:58:31.010Z,5368
2022-08-28T07:59:40.191Z,4482
2022-08-28T08:00:49.364Z,1671
2022-08-28T08:01:58.534Z,5613
2022-08-28T08:03:07.704Z,5261
2022-08-28T08:04:16.884Z,7433
2022-08-28T08:05:26.046Z,4170
2022-08-28T08:06:35.222Z,5947
2022-08-28T08:07:44.396Z,5603
2022-08-28T08:08:52.583Z,9988
2022-08-28T08:10:01.772Z,2170
2022-08-28T08:11:10.923Z,8980
2022-08-28T08:12:20.112Z,10624
2022-08-28T08:13:29.274Z,5788
2022-08-28T08:14:38.438Z,3001
2022-08-28T08:15:47.620Z,9228
2022-08-28T08:16:56.789Z,2386
2022-08-28T08:18:05.958Z,6464
2022-08-28T08:19:15.135Z,7574
2022-08-28T08:20:24.296Z,7675
2022-08-28T08:21:33.482Z,7026
2022-08-28T08:22:42.654Z,6902
2022-08-28T08:23:50.835Z,12162
2022-08-28T08:25:00.006Z,5233
2022-08-28T08:26:09.196Z,3676
2022-08-28T08:27:18.352Z,9419
2022-08-28T08:28:27.542Z,2114
2022-08-28T08:29:36.704Z,6693
2022-08-28T08:30:45.873Z,7110
2022-08-28T08:31:55.070Z,7037
2022-08-28T08:33:04.228Z,7172
2022-08-28T08:34:13.395Z,6827
2022-08-28T08:35:22.568Z,6681
2022-08-28T08:36:31.736Z,7151
2022-08-28T08:37:40.908Z,7812
2022-08-28T08:38:49.105Z,7976
2022-08-28T08:39:58.275Z,7877
2022-08-28T08:41:07.451Z,8611
2022-08-28T08:42:16.625Z,12190
2022-08-28T08:43:25.787Z,10983
2022-08-28T08:44:34.967Z,11604
2022-08-28T08:45:44.131Z,3124
2022-08-28T08:46:53.310Z,10465
2022-08-28T08:48:02.485Z,7933
2022-08-28T08:49:11.649Z,8633
2022-08-28T08:50:20.818Z,8045
2022-08-28T08:51:29.990Z,7956
2022-08-28T08:52:39.172Z,11407
2022-08-28T08:53:47.372Z,5111
2022-08-28T08:54:56.533Z,6370
2022-08-28T08:56:05.709Z,2268
2022-08-28T08:57:14.871Z,11404
2022-08-28T08:58:24.048Z,2506
2022-08-28T08:59:33.236Z,12746
2022-08-28T09:00:42.393Z,6839
2022-08-28T09:01:51.563Z,6304
2022-08-28T09:03:00.738Z,4738
2022-08-28T09:04:09.911Z,3128
2022-08-28T09:05:19.100Z,9142
2022-08-28T09:06:28.259Z,8249
2022-08-28T09:07:37.430Z,7751
2022-08-28T09:08:46.603Z,8762
2022-08-28T09:09:54.788Z,9298
2022-08-28T09:11:03.957Z,9941
2022-08-28T09:12:13.131Z,9896
2022-08-28T09:13:22.314Z,8814
2022-08-28T09:14:31.479Z,8564
2022-08-28T09:15:40.670Z,8793
2022-08-28T09:16:49.822Z,8127
2022-08-28T09:17:58.996Z,8186
2022-08-28T09:19:08.188Z,8305
2022-08-28T09:20:17.347Z,7673
2022-08-28T09:21:26.517Z,7628
2022-08-28T09:22:35.694Z,7828
2022-08-28T09:23:44.882Z,7901
2022-08-28T09:24:53.045Z,7437
2022-08-28T09:26:02.217Z,7224
2022-08-28T09:27:11.392Z,7029
2022-08-28T09:28:20.562Z,6840
2022-08-28T09:29:29.728Z,7287
2022-08-28T09:30:38.918Z,7593
2022-08-28T09:31:48.101Z,7680
2022-08-28T09:32:57.270Z,7320
2022-08-28T09:34:06.429Z,7843
2022-08-28T09:35:15.602Z,12067
2022-08-28T09:36:24.767Z,2439
2022-08-28T09:37:33.931Z,8262
2022-08-28T09:38:43.117Z,8496
2022-08-28T09:39:51.310Z,8366
2022-08-28T09:41:00.483Z,8087
2022-08-28T09:42:09.638Z,7853
2022-08-28T09:43:18.829Z,10156
2022-08-28T09:44:27.994Z,9766
2022-08-28T09:45:37.172Z,2256
2022-08-28T09:46:46.333Z,7692
2022-08-28T09:47:55.518Z,8217
2022-08-28T09:49:04.686Z,8813
2022-08-28T09:50:13.857Z,8678
2022-08-28T09:51:23.029Z,9428
2022-08-28T09:52:32.198Z,9960
2022-08-28T09:53:41.377Z,10180
2022-08-28T09:54:49.562Z,10126
2022-08-28T09:55:58.741Z,10019
2022-08-28T09:57:07.904Z,14427
2022-08-28T09:58:17.073Z,7089
2022-08-28T09:59:26.255Z,15551
2022-08-28T10:00:35.423Z,10825
2022-08-28T10:01:44.603Z,10596
2022-08-28T10:02:53.775Z,6879
2022-08-28T10:04:02.951Z,5234
2022-08-28T10:05:12.125Z,2208
2022-08-28T10:06:21.293Z,3853
2022-08-28T10:07:30.458Z,18861
2022-08-28T10:08:39.635Z,16104
2022-08-28T10:09:47.828Z,14111
2022-08-28T10:10:57.001Z,17674
2022-08-28T10:12:06.160Z,4899
2022-08-28T10:13:15.342Z,13782
2022-08-28T10:14:24.517Z,10779
2022-08-28T10:15:33.680Z,6887
2022-08-28T10:16:42.865Z,6181
2022-08-28T10:17:52.024Z,5890
2022-08-28T10:19:01.192Z,2776
2022-08-28T10:20:10.367Z,19644
2022-08-28T10:21:19.548Z,4413
2022-08-28T10:23:37.884Z,20696
2022-08-28T10:24:46.074Z,4082
2022-08-28T10:25:54.267Z,16969
2022-08-28T10:28:12.603Z,18429
2022-08-28T10:29:21.783Z,3588
2022-08-28T10:30:30.958Z,11002
2022-08-28T10:31:40.141Z,14713
2022-08-28T10:32:49.313Z,16019
2022-08-28T10:33:58.472Z,17296
2022-08-28T10:35:07.656Z,14286
2022-08-28T10:36:16.829Z,16898
2022-08-28T10:37:25.996Z,16975
2022-08-28T10:38:34.191Z,12142
2022-08-28T10:39:42.386Z,18505
2022-08-28T10:40:51.548Z,7779
2022-08-28T10:42:00.717Z,14160
2022-08-28T10:43:08.919Z,18824
2022-08-28T10:44:17.106Z,11512
2022-08-28T10:45:26.277Z,14190
2022-08-28T10:46:35.445Z,5888
2022-08-28T10:47:44.648Z,11555
2022-08-28T10:48:53.820Z,16455
2022-08-28T10:50:02.967Z,6296
2022-08-28T10:51:12.135Z,14220
2022-08-28T10:52:21.325Z,14081
2022-08-28T10:53:30.493Z,14384
2022-08-28T10:54:39.669Z,13435
2022-08-28T10:55:48.823Z,14235
2022-08-28T10:56:58.006Z,16197
2022-08-28T10:58:07.179Z,5277
2022-08-28T10:59:15.363Z,4310
2022-08-28T11:00:24.539Z,10488
2022-08-28T11:01:33.700Z,9883
2022-08-28T11:02:42.887Z,9635
2022-08-28T11:03:52.054Z,9593
2022-08-28T11:05:01.236Z,9620
2022-08-28T11:06:10.401Z,9739
2022-08-28T11:07:19.570Z,9913
2022-08-28T11:08:28.737Z,10287
2022-08-28T11:09:37.906Z,11166
2022-08-28T11:10:47.085Z,15876
2022-08-28T11:11:56.262Z,6986
2022-08-28T11:13:05.433Z,7581
2022-08-28T11:14:13.627Z,11020
2022-08-28T11:15:22.784Z,7503
2022-08-28T11:16:31.967Z,11474
2022-08-28T11:17:41.141Z,12954
2022-08-28T11:18:50.328Z,13375
2022-08-28T11:19:59.480Z,13382
2022-08-28T11:22:17.833Z,12785
2022-08-28T11:23:27.008Z,16118
2022-08-28T11:24:36.193Z,9297
2022-08-28T11:25:45.354Z,9505
2022-08-28T11:26:54.520Z,8546
2022-08-28T11:28:03.689Z,8947
2022-08-28T11:29:11.884Z,5202
2022-08-28T11:30:21.065Z,7306
2022-08-28T11:31:30.224Z,12698
2022-08-28T11:32:39.394Z,12989
2022-08-28T11:33:48.567Z,12870
2022-08-28T11:34:57.746Z,13030
2022-08-28T11:36:06.915Z,12434
2022-08-28T11:37:16.085Z,12584
2022-08-28T11:38:25.264Z,12850
2022-08-28T11:39:34.430Z,11479
2022-08-28T11:40:43.598Z,11564
2022-08-28T11:41:52.781Z,11374
2022-08-28T11:43:01.953Z,10915
2022-08-28T11:44:10.142Z,10729
2022-08-28T11:45:19.319Z,10294
2022-08-28T11:46:28.478Z,10657
2022-08-28T11:47:37.649Z,10803
2022-08-28T11:48:46.833Z,15180
2022-08-28T11:49:56.005Z,3696
2022-08-28T11:51:05.161Z,11442
2022-08-28T11:52:14.353Z,13001
2022-08-28T11:53:23.508Z,11996
2022-08-28T11:54:32.699Z,14467
2022-08-28T11:55:41.866Z,20153
2022-08-28T11:56:51.041Z,14007
2022-08-28T11:59:08.390Z,9853
2022-08-28T12:00:17.566Z,12037
2022-08-28T12:01:26.746Z,9980
2022-08-28T12:02:35.916Z,11907
2022-08-28T12:03:45.089Z,10498
2022-08-28T12:04:54.257Z,14151
2022-08-28T12:06:03.462Z,14697
2022-08-28T12:07:12.599Z,17038
2022-08-28T12:08:21.769Z,23099
2022-08-28T12:09:30.956Z,19239
2022-08-28T12:10:40.124Z,13244
2022-08-28T12:11:49.295Z,12411
2022-08-28T12:12:58.468Z,12729
2022-08-28T12:14:06.650Z,12112
2022-08-28T12:15:15.831Z,11304
2022-08-28T12:16:25.011Z,11886
2022-08-28T12:17:34.174Z,11602
2022-08-28T12:18:43.352Z,10577
2022-08-28T12:19:52.524Z,10690
2022-08-28T12:21:01.694Z,3817
2022-08-28T12:22:10.861Z,19508
2022-08-28T12:23:19.055Z,18672
2022-08-28T12:24:27.255Z,17894
2022-08-28T12:25:36.420Z,16685
2022-08-28T12:26:45.592Z,15893
2022-08-28T12:27:54.772Z,26336
2022-08-28T12:29:03.952Z,35427
2022-08-28T12:31:22.293Z,21746
2022-08-28T12:32:31.454Z,2322
2022-08-28T12:33:40.622Z,50226
2022-08-28T12:34:49.801Z,57673
2022-08-28T12:35:58.966Z,38532
2022-08-28T12:37:08.153Z,40505
2022-08-28T12:38:17.313Z,38300
2022-08-28T12:39:25.504Z,25083
2022-08-28T12:40:34.672Z,37098
2022-08-28T12:41:43.854Z,35944
2022-08-28T12:42:53.019Z,27367
2022-08-28T12:44:02.200Z,32259
2022-08-28T12:45:11.358Z,36024
2022-08-28T12:46:20.544Z,37489
2022-08-28T12:47:28.733Z,33166
2022-08-28T12:48:36.919Z,5434
2022-08-28T12:49:46.090Z,29141
2022-08-28T12:50:55.271Z,15404
2022-08-28T12:52:04.445Z,10757
2022-08-28T12:53:13.614Z,23778
2022-08-28T12:54:22.785Z,4333
2022-08-28T12:55:31.962Z,23610
2022-08-28T12:56:41.145Z,15374
2022-08-28T12:57:50.316Z,14313
2022-08-28T12:58:59.471Z,19417
2022-08-28T13:00:08.658Z,19675
2022-08-28T13:01:17.824Z,18639
2022-08-28T13:02:27.005Z,18242
2022-08-28T13:03:35.174Z,18361
2022-08-28T13:04:44.358Z,18195
2022-08-28T13:07:02.698Z,19736
2022-08-28T13:08:11.884Z,21403
2022-08-28T13:09:21.060Z,19542
2022-08-28T13:10:30.212Z,19296
2022-08-28T13:11:39.384Z,18741
2022-08-28T13:12:48.564Z,18908
2022-08-28T13:15:06.915Z,10570
2022-08-28T13:16:16.090Z,12000
2022-08-28T13:17:25.251Z,53671
2022-08-28T13:18:33.448Z,48823
2022-08-28T13:19:42.624Z,45238
2022-08-28T13:20:51.796Z,36178
2022-08-28T13:22:00.959Z,14842
2022-08-28T13:23:10.130Z,60372
2022-08-28T13:24:19.301Z,35994
2022-08-28T13:25:28.481Z,47965
2022-08-28T13:26:37.653Z,18735
2022-08-28T13:27:46.831Z,15332
2022-08-28T13:28:56.001Z,57044
2022-08-28T13:30:05.159Z,57286
2022-08-28T13:31:14.342Z,19352
2022-08-28T13:32:23.517Z,20127
2022-08-28T13:33:31.705Z,51991
2022-08-28T13:34:40.877Z,15901
2022-08-28T13:35:50.053Z,12861
2022-08-28T13:36:59.219Z,0
2022-08-28T13:38:08.387Z,51831
2022-08-28T13:39:17.565Z,15761
2022-08-28T13:40:26.745Z,12908
2022-08-28T13:41:35.920Z,11282
2022-08-28T13:42:45.092Z,4656
2022-08-28T13:43:54.264Z,10985
2022-08-28T13:45:03.433Z,19228
2022-08-28T13:46:12.590Z,20366
2022-08-28T13:47:21.774Z,17001
2022-08-28T13:48:30.938Z,24180
2022-08-28T13:49:39.142Z,25082
2022-08-28T13:50:48.305Z,15895
2022-08-28T13:51:57.469Z,44860
2022-08-28T13:53:06.651Z,19003
2022-08-28T13:54:15.832Z,24660
2022-08-28T13:55:25.003Z,20813
2022-08-28T13:56:34.177Z,18694
2022-08-28T13:57:43.342Z,24397
2022-08-28T13:58:52.512Z,21434
2022-08-28T14:00:01.714Z,18068
2022-08-28T14:01:09.881Z,22252
2022-08-28T14:03:27.238Z,37498
2022-08-28T14:04:36.412Z,9799
2022-08-28T14:05:45.594Z,19936
2022-08-28T14:06:54.761Z,20484
2022-08-28T14:08:03.945Z,27137
2022-08-28T14:09:13.110Z,30358
2022-08-28T14:10:21.311Z,32840
2022-08-28T14:11:29.490Z,28166
2022-08-28T14:12:38.667Z,15703
2022-08-28T14:13:47.829Z,57284
2022-08-28T14:16:06.186Z,20979
2022-08-28T14:17:14.376Z,17072
2022-08-28T14:18:23.549Z,19083
2022-08-28T14:19:32.718Z,22001
2022-08-28T14:20:41.886Z,20333
2022-08-28T14:21:51.058Z,25715
2022-08-28T14:23:00.241Z,26200
2022-08-28T14:24:09.422Z,12527
2022-08-28T14:25:18.577Z,33852
2022-08-28T14:26:27.747Z,15789
2022-08-28T14:27:36.928Z,38061
2022-08-28T14:28:46.103Z,33307
2022-08-28T14:29:55.269Z,31516
2022-08-28T14:31:04.448Z,30358
2022-08-28T14:32:12.624Z,26960
2022-08-28T14:33:21.807Z,27961
2022-08-28T14:34:30.975Z,32130
2022-08-28T14:35:40.154Z,35814
2022-08-28T14:36:49.324Z,25949
2022-08-28T14:37:58.496Z,26485
2022-08-28T14:39:07.668Z,31733
2022-08-28T14:40:16.849Z,24807
2022-08-28T14:41:26.007Z,27901
2022-08-28T14:42:35.191Z,33711
2022-08-28T14:43:44.363Z,29836
2022-08-28T14:44:53.535Z,28491
2022-08-28T14:46:02.713Z,25684
2022-08-28T14:47:10.900Z,32480
2022-08-28T14:48:20.072Z,34918
2022-08-28T14:49:29.230Z,31963
2022-08-28T14:50:38.418Z,33124
2022-08-28T14:51:47.605Z,32823
2022-08-28T14:52:55.772Z,34559
2022-08-28T14:54:03.965Z,33223
2022-08-28T14:55:13.138Z,33216
2022-08-28T14:56:22.312Z,32226
2022-08-28T14:57:30.509Z,32011
2022-08-28T14:58:39.674Z,31351
2022-08-28T14:59:47.874Z,32833
2022-08-28T15:00:57.039Z,33855
2022-08-28T15:02:06.212Z,35826
2022-08-28T15:03:15.385Z,35692
2022-08-28T15:04:24.561Z,32766
2022-08-28T15:05:33.750Z,32999
2022-08-28T15:06:42.905Z,34286
2022-08-28T15:07:52.081Z,24817
2022-08-28T15:09:01.245Z,27484
2022-08-28T15:10:10.419Z,31891
2022-08-28T15:11:19.590Z,30069
2022-08-28T15:12:28.772Z,32198
2022-08-28T15:13:37.942Z,19277
2022-08-28T15:14:46.124Z,22436
2022-08-28T15:15:55.303Z,29703
2022-08-28T15:17:04.481Z,29997
2022-08-28T15:18:13.648Z,32477
2022-08-28T15:19:22.817Z,27259
2022-08-28T15:20:31.992Z,26941
2022-08-28T15:21:41.159Z,1706
2022-08-28T15:22:50.341Z,52887
2022-08-28T15:23:59.514Z,14939
2022-08-28T15:25:08.687Z,31278
2022-08-28T15:26:17.869Z,28352
2022-08-28T15:27:27.028Z,26403
2022-08-28T15:28:36.207Z,21707
2022-08-28T15:29:44.413Z,27412
2022-08-28T15:30:53.562Z,34233
2022-08-28T15:32:02.738Z,34781
2022-08-28T15:33:11.934Z,34448
2022-08-28T15:34:21.082Z,35372
2022-08-28T15:35:30.256Z,31314
2022-08-28T15:36:39.419Z,31863
2022-08-28T15:38:57.765Z,21285
2022-08-28T15:40:06.938Z,19033
2022-08-28T15:41:16.108Z,21738
2022-08-28T15:42:25.300Z,34390
2022-08-28T15:43:34.460Z,53480
2022-08-28T15:44:42.648Z,18922
2022-08-28T15:45:51.830Z,0
2022-08-28T15:47:00.995Z,31260
2022-08-28T15:48:10.159Z,31980
2022-08-28T15:49:19.334Z,32406
2022-08-28T15:50:28.511Z,22407
2022-08-28T15:51:37.687Z,29606
2022-08-28T15:52:46.857Z,34097
2022-08-28T15:55:05.219Z,33293
2022-08-28T15:56:14.375Z,33974
2022-08-28T15:57:23.547Z,33579